LQSA/SJJ METAR and TAF weather

Enter ICAO airport designator
Station Type Date Time Source
LQSA METAR 2022/08/12 14:00 UTC NOAA

LQSA 121400Z VRB04KT 9999 SCT050 25/10 Q1014 NOSIG


Station Type Date Time Source
LQSA Decoded METAR 2022/08/12 14:00 UTC NOAA

Sarajevo, Bosnia and Herzegovina (LQSA) 43-49N 018-20E 510M
Aug 12, 2022 - 10:00 AM EDT / 2022.08.12 1400 UTC
Wind: Variable at 5 MPH (4 KT):0
Visibility: greater than 7 mile(s):0
Sky conditions: partly cloudy
Temperature: 77 F (25 C)
Dew Point: 50 F (10 C)
Relative Humidity: 38%
Pressure (altimeter): 29.94 in. Hg (1014 hPa)
ob: LQSA 121400Z VRB04KT 9999 SCT050 25/10 Q1014 NOSIG
cycle: 14

Station Type Date Time Source
LQSA TAF 2022/08/12 12:07 UTC NOAA

TAF LQSA 121100Z 1212/1312 VRB02KT 9999 SCT060 TX26/1214Z TN11/1304Z
TEMPO 1214/1221 SHRA FEW035TCU BKN050 PROB40 1302/1306 4000 -RA BR BKN008 BKN035 PROB30
TEMPO 1310/1312 TSRA FEW035CB BKN045

Example: see airport list